Time;durP1;ratioP1;P1;durP2;ratioP2;P2;SDS_P1;SDS_P2;PMS_P1;PMS_P2;Temp;Humidity;BMP_temperature;BMP_pressure;BME280_temperature;BME280_humidity;BME280_pressure;Samples;Min_cycle;Max_cycle;Signal;HPM_P1;HPM_P2
2022/01/10 00:00:55;;;;;;;60.88;31.92;;;;;;;;;;5062790;28;20052;-45
2022/01/10 00:03:24;;;;;;;55.97;28.42;;;;;;;;;;5063189;28;20025;-45
2022/01/10 00:05:50;;;;;;;54.30;30.60;;;;;;;;;;5063873;28;20115;-46
2022/01/10 00:08:16;;;;;;;53.35;28.40;;;;;;;;;;5063124;28;20074;-45
2022/01/10 00:10:45;;;;;;;76.03;39.28;;;;;;;;;;5062871;28;20032;-46
2022/01/10 00:13:11;;;;;;;67.00;35.45;;;;;;;;;;5062848;28;20035;-47
2022/01/10 00:15:37;;;;;;;69.05;37.22;;;;;;;;;;5062877;28;20060;-47
2022/01/10 00:18:08;;;;;;;87.53;45.25;;;;;;;;;;5062674;28;20027;-47
2022/01/10 00:20:35;;;;;;;65.17;34.93;;;;;;;;;;5062787;28;20049;-48
2022/01/10 00:23:03;;;;;;;50.78;26.58;;;;;;;;;;5062629;28;20166;-45
2022/01/10 00:25:29;;;;;;;66.60;34.05;;;;;;;;;;5062610;28;20062;-44
2022/01/10 00:27:56;;;;;;;60.47;32.38;;;;;;;;;;5062500;28;20052;-45
2022/01/10 00:30:26;;;;;;;56.35;31.65;;;;;;;;;;5062488;28;20203;-48
2022/01/10 00:32:52;;;;;;;59.70;31.52;;;;;;;;;;5063616;28;20030;-46
2022/01/10 00:35:19;;;;;;;62.15;32.40;;;;;;;;;;5062556;28;20032;-45
2022/01/10 00:37:45;;;;;;;49.90;27.17;;;;;;;;;;5062353;28;20799;-45
2022/01/10 00:40:15;;;;;;;47.00;25.30;;;;;;;;;;5062708;28;20111;-44
2022/01/10 00:42:52;;;;;;;59.65;30.55;;;;;;;;;;5062424;28;20019;-46
2022/01/10 00:45:26;;;;;;;49.80;26.35;;;;;;;;;;5061730;28;20059;-45
2022/01/10 00:47:59;;;;;;;64.45;34.85;;;;;;;;;;5063461;28;20020;-46
2022/01/10 00:50:26;;;;;;;49.20;26.90;;;;;;;;;;5062260;28;20510;-45
2022/01/10 00:52:53;;;;;;;46.15;25.27;;;;;;;;;;5062143;28;20028;-45
2022/01/10 00:55:19;;;;;;;44.08;24.02;;;;;;;;;;5063574;28;20357;-46
2022/01/10 00:57:48;;;;;;;44.42;23.67;;;;;;;;;;5062289;28;20054;-46
2022/01/10 01:00:15;;;;;;;44.85;25.35;;;;;;;;;;5062194;28;20069;-47
2022/01/10 01:02:41;;;;;;;41.28;21.92;;;;;;;;;;5063374;28;22686;-46
2022/01/10 01:05:10;;;;;;;43.17;23.85;;;;;;;;;;5062362;28;20028;-47
2022/01/10 01:07:38;;;;;;;50.05;27.75;;;;;;;;;;5062400;28;20515;-46
2022/01/10 01:12:52;;;;;;;48.88;25.20;;;;;;;;;;5062172;28;20094;-46
2022/01/10 01:15:23;;;;;;;39.30;21.85;;;;;;;;;;5062600;28;20033;-46
2022/01/10 01:26:09;;;;;;;40.15;20.83;;;;;;;;;;5019171;28;20534;-45
2022/01/10 01:28:35;;;;;;;37.55;20.20;;;;;;;;;;5018734;28;20053;-48
2022/01/10 01:31:01;;;;;;;38.70;21.80;;;;;;;;;;5017154;28;20029;-46
2022/01/10 01:33:27;;;;;;;33.33;18.77;;;;;;;;;;5018269;28;20067;-47
2022/01/10 01:35:55;;;;;;;38.10;20.65;;;;;;;;;;5025467;28;20041;-46
2022/01/10 01:38:22;;;;;;;39.17;21.67;;;;;;;;;;5030570;28;20605;-46
2022/01/10 01:40:56;;;;;;;39.33;22.65;;;;;;;;;;5030645;28;20037;-45
2022/01/10 01:43:24;;;;;;;38.88;21.85;;;;;;;;;;5030505;28;20025;-46
2022/01/10 01:45:51;;;;;;;38.45;22.00;;;;;;;;;;5030471;28;20549;-48
2022/01/10 01:48:17;;;;;;;44.25;24.98;;;;;;;;;;5030495;28;20083;-46
2022/01/10 01:50:47;;;;;;;34.55;19.65;;;;;;;;;;5030394;28;20021;-45
2022/01/10 01:53:13;;;;;;;32.30;18.65;;;;;;;;;;5030421;28;20033;-46
2022/01/10 01:55:42;;;;;;;38.08;20.00;;;;;;;;;;5030346;28;20041;-46
2022/01/10 01:58:08;;;;;;;38.47;19.77;;;;;;;;;;5032484;28;20032;-46
2022/01/10 02:00:34;;;;;;;34.53;19.23;;;;;;;;;;5060935;28;20033;-45
2022/01/10 02:03:00;;;;;;;42.35;23.23;;;;;;;;;;5076037;28;20031;-46
2022/01/10 02:05:27;;;;;;;38.33;20.45;;;;;;;;;;5076273;28;20099;-44
2022/01/10 02:07:53;;;;;;;34.50;20.85;;;;;;;;;;5075893;28;20081;-45
2022/01/10 02:10:19;;;;;;;33.45;19.55;;;;;;;;;;5075847;28;20052;-46
2022/01/10 02:12:48;;;;;;;35.72;18.65;;;;;;;;;;5075762;28;20484;-46
2022/01/10 02:15:32;;;;;;;33.33;19.95;;;;;;;;;;5075644;28;20067;-46
2022/01/10 02:18:00;;;;;;;38.55;22.75;;;;;;;;;;5075611;28;20098;-47
2022/01/10 02:20:28;;;;;;;29.05;17.15;;;;;;;;;;5075491;28;20087;-46
2022/01/10 02:22:54;;;;;;;39.65;22.15;;;;;;;;;;5075721;28;20025;-45
2022/01/10 02:25:20;;;;;;;37.50;21.00;;;;;;;;;;5075700;28;20028;-46
2022/01/10 02:27:47;;;;;;;32.88;19.00;;;;;;;;;;5075232;28;20120;-46
2022/01/10 02:30:13;;;;;;;38.30;22.15;;;;;;;;;;5075283;28;20029;-46
2022/01/10 02:32:39;;;;;;;36.45;20.65;;;;;;;;;;5075331;28;20090;-46
2022/01/10 02:35:17;;;;;;;36.55;20.85;;;;;;;;;;5075176;28;20041;-49
2022/01/10 02:37:46;;;;;;;32.22;18.50;;;;;;;;;;5075197;28;20024;-48
2022/01/10 02:40:14;;;;;;;33.92;19.55;;;;;;;;;;5075148;28;20037;-46
2022/01/10 02:42:40;;;;;;;33.85;18.70;;;;;;;;;;5075195;28;20389;-46
2022/01/10 02:45:07;;;;;;;33.20;18.50;;;;;;;;;;5075107;28;20025;-48
2022/01/10 02:47:35;;;;;;;25.77;15.43;;;;;;;;;;5075038;28;20032;-46
2022/01/10 02:50:01;;;;;;;25.20;15.57;;;;;;;;;;5073796;28;20035;-45
2022/01/10 02:52:27;;;;;;;29.25;17.38;;;;;;;;;;5074853;28;20028;-46
2022/01/10 02:54:53;;;;;;;33.28;19.23;;;;;;;;;;5075182;28;20036;-46
2022/01/10 02:57:20;;;;;;;31.73;17.80;;;;;;;;;;5074871;28;20040;-45
2022/01/10 02:59:46;;;;;;;30.90;17.77;;;;;;;;;;5074795;28;20280;-47
2022/01/10 03:02:12;;;;;;;32.85;17.92;;;;;;;;;;5074716;28;20078;-46
2022/01/10 03:04:38;;;;;;;35.85;19.30;;;;;;;;;;5074955;28;20100;-46
2022/01/10 03:07:05;;;;;;;35.42;20.50;;;;;;;;;;5074898;28;20025;-47
2022/01/10 03:09:31;;;;;;;33.03;18.25;;;;;;;;;;5074315;28;20020;-46
2022/01/10 03:11:57;;;;;;;31.35;17.38;;;;;;;;;;5074600;28;20025;-45
2022/01/10 03:14:23;;;;;;;33.85;18.67;;;;;;;;;;5074486;28;20438;-47
2022/01/10 03:16:49;;;;;;;32.50;19.00;;;;;;;;;;5074401;28;20393;-47
2022/01/10 03:19:15;;;;;;;31.52;17.92;;;;;;;;;;5074478;28;20044;-46
2022/01/10 03:21:41;;;;;;;35.67;20.10;;;;;;;;;;5074404;28;20032;-46
2022/01/10 03:24:07;;;;;;;27.02;16.58;;;;;;;;;;5074405;28;20020;-46
2022/01/10 03:26:33;;;;;;;32.75;19.48;;;;;;;;;;5074112;28;20186;-46
2022/01/10 03:28:59;;;;;;;34.90;19.58;;;;;;;;;;5074071;28;20056;-47
2022/01/10 03:31:28;;;;;;;36.67;20.60;;;;;;;;;;5074263;28;20508;-46
2022/01/10 03:33:54;;;;;;;39.08;21.40;;;;;;;;;;5074055;28;20035;-46
2022/01/10 03:36:20;;;;;;;35.72;19.92;;;;;;;;;;5074101;28;20105;-46
2022/01/10 03:38:46;;;;;;;36.42;21.13;;;;;;;;;;5073934;28;20021;-46
2022/01/10 03:41:13;;;;;;;34.45;19.90;;;;;;;;;;5074119;28;20516;-46
2022/01/10 03:43:39;;;;;;;39.55;21.40;;;;;;;;;;5073983;28;20024;-46
2022/01/10 03:46:06;;;;;;;35.97;19.77;;;;;;;;;;5073778;28;20033;-46
2022/01/10 03:48:32;;;;;;;38.28;21.52;;;;;;;;;;5073766;28;20474;-46
2022/01/10 03:50:58;;;;;;;36.75;19.95;;;;;;;;;;5073945;28;20028;-45
2022/01/10 03:53:24;;;;;;;36.10;19.70;;;;;;;;;;5073899;28;20025;-45
2022/01/10 03:55:50;;;;;;;36.00;20.02;;;;;;;;;;5073497;28;20115;-46
2022/01/10 03:58:17;;;;;;;38.15;20.50;;;;;;;;;;5073679;28;20474;-46
2022/01/10 04:00:43;;;;;;;35.67;20.08;;;;;;;;;;5073716;28;20086;-46
2022/01/10 04:03:09;;;;;;;33.88;20.20;;;;;;;;;;5073644;28;20024;-47
2022/01/10 04:05:35;;;;;;;36.25;20.25;;;;;;;;;;5072615;28;20059;-45
2022/01/10 04:08:02;;;;;;;38.10;21.63;;;;;;;;;;5073628;28;20351;-45
2022/01/10 04:10:28;;;;;;;41.08;22.83;;;;;;;;;;5073751;28;20020;-46
2022/01/10 04:12:54;;;;;;;37.60;21.17;;;;;;;;;;5073453;28;20044;-46
2022/01/10 04:15:20;;;;;;;36.10;21.40;;;;;;;;;;5073452;28;20086;-47
2022/01/10 04:17:52;;;;;;;38.13;21.83;;;;;;;;;;5073422;28;20118;-46
2022/01/10 04:20:18;;;;;;;;;;;;;;;;;;5073187;28;20048;-45
2022/01/10 04:22:44;;;;;;;39.42;22.00;;;;;;;;;;5073533;28;20354;-50
2022/01/10 04:25:10;;;;;;;38.90;21.67;;;;;;;;;;5072328;28;20031;-50
2022/01/10 04:27:36;;;;;;;39.65;22.20;;;;;;;;;;5073044;28;20044;-46
2022/01/10 04:30:03;;;;;;;37.40;21.27;;;;;;;;;;5073365;28;20064;-46
2022/01/10 04:32:32;;;;;;;39.08;22.38;;;;;;;;;;5073256;28;20063;-46
2022/01/10 04:34:58;;;;;;;34.85;20.85;;;;;;;;;;5073233;28;20036;-47
2022/01/10 04:37:24;;;;;;;37.58;21.13;;;;;;;;;;5073259;28;20020;-46
2022/01/10 04:39:50;;;;;;;45.00;23.85;;;;;;;;;;5073320;28;20367;-46
2022/01/10 04:42:16;;;;;;;47.00;26.73;;;;;;;;;;5073129;28;20027;-45
2022/01/10 04:44:42;;;;;;;75.25;38.88;;;;;;;;;;5072963;28;20083;-46
2022/01/10 04:47:11;;;;;;;77.95;39.88;;;;;;;;;;5072072;28;20082;-45
2022/01/10 04:50:03;;;;;;;85.90;43.67;;;;;;;;;;5073235;28;20032;-46
2022/01/10 04:52:23;;;;;;;69.05;37.92;;;;;;;;;;5072859;28;20032;-45
2022/01/10 04:54:49;;;;;;;57.08;30.48;;;;;;;;;;5072853;28;20382;-45
2022/01/10 04:57:15;;;;;;;59.30;30.55;;;;;;;;;;5072828;28;20025;-44
2022/01/10 04:59:41;;;;;;;97.35;49.00;;;;;;;;;;5072950;28;20033;-46
2022/01/10 05:02:09;;;;;;;68.03;34.75;;;;;;;;;;5072637;28;20056;-45
2022/01/10 05:04:36;;;;;;;54.92;29.00;;;;;;;;;;5073056;28;20031;-45
2022/01/10 05:07:02;;;;;;;62.28;33.33;;;;;;;;;;5072743;28;20462;-46
2022/01/10 05:09:30;;;;;;;51.53;27.85;;;;;;;;;;5072793;28;20021;-46
2022/01/10 05:11:56;;;;;;;109.25;62.17;;;;;;;;;;5072691;28;20035;-47
2022/01/10 05:14:23;;;;;;;66.20;34.15;;;;;;;;;;5072846;28;20021;-46
2022/01/10 05:16:49;;;;;;;53.70;27.23;;;;;;;;;;5072592;28;20363;-46
2022/01/10 05:19:17;;;;;;;48.28;26.27;;;;;;;;;;5072968;28;20048;-47
2022/01/10 05:21:46;;;;;;;54.67;25.90;;;;;;;;;;5072814;28;20024;-46
2022/01/10 05:24:12;;;;;;;63.08;30.35;;;;;;;;;;5071568;28;20025;-48
2022/01/10 05:26:40;;;;;;;52.40;26.60;;;;;;;;;;5072893;28;20032;-48
2022/01/10 05:29:06;;;;;;;76.85;38.13;;;;;;;;;;5072655;28;20044;-46
2022/01/10 05:31:35;;;;;;;62.33;32.13;;;;;;;;;;5073779;28;20042;-47
2022/01/10 05:34:02;;;;;;;62.60;32.42;;;;;;;;;;5076486;28;20078;-47
2022/01/10 05:36:28;;;;;;;53.50;28.73;;;;;;;;;;5076430;28;20123;-47
2022/01/10 05:38:56;;;;;;;55.33;30.92;;;;;;;;;;5076356;28;20544;-46
2022/01/10 05:41:22;;;;;;;64.10;33.45;;;;;;;;;;5076514;28;20086;-47
2022/01/10 05:43:49;;;;;;;55.30;29.48;;;;;;;;;;5076251;28;20017;-46
2022/01/10 05:46:21;;;;;;;51.60;27.08;;;;;;;;;;5076107;28;20029;-46
2022/01/10 05:48:51;;;;;;;49.78;27.05;;;;;;;;;;5076364;28;20095;-54
2022/01/10 05:51:18;;;;;;;40.17;22.52;;;;;;;;;;5076357;28;20094;-54
2022/01/10 05:53:44;;;;;;;49.60;27.65;;;;;;;;;;5076078;28;20473;-47
2022/01/10 05:56:10;;;;;;;56.67;29.48;;;;;;;;;;5075995;28;20459;-46
2022/01/10 05:58:36;;;;;;;52.30;26.40;;;;;;;;;;5075981;28;20023;-50
2022/01/10 06:01:02;;;;;;;66.53;31.50;;;;;;;;;;5075965;28;20122;-45
2022/01/10 06:03:28;;;;;;;56.20;29.15;;;;;;;;;;5076008;28;20099;-46
2022/01/10 06:05:54;;;;;;;52.15;27.65;;;;;;;;;;5075721;28;20066;-46
2022/01/10 06:08:20;;;;;;;63.22;32.17;;;;;;;;;;5075897;28;20071;-46
2022/01/10 06:10:46;;;;;;;55.75;28.55;;;;;;;;;;5075739;28;20056;-46
2022/01/10 06:13:12;;;;;;;53.45;29.35;;;;;;;;;;5076270;28;20477;-46
2022/01/10 06:15:41;;;;;;;64.07;32.72;;;;;;;;;;5075385;28;20028;-46
2022/01/10 06:18:07;;;;;;;58.65;30.08;;;;;;;;;;5075464;28;20488;-46
2022/01/10 06:20:33;;;;;;;62.75;30.63;;;;;;;;;;5075851;28;20113;-50
2022/01/10 06:23:00;;;;;;;57.45;27.00;;;;;;;;;;5075574;28;20025;-50
2022/01/10 06:25:26;;;;;;;81.38;42.05;;;;;;;;;;5075522;28;20025;-50
2022/01/10 06:27:52;;;;;;;80.57;40.88;;;;;;;;;;5075303;28;20143;-50
2022/01/10 06:30:18;;;;;;;102.22;50.72;;;;;;;;;;5075319;28;20090;-52
2022/01/10 06:32:45;;;;;;;90.18;46.72;;;;;;;;;;5075300;28;20474;-54
2022/01/10 06:35:11;;;;;;;98.28;49.10;;;;;;;;;;5075238;28;20039;-52
2022/01/10 06:37:37;;;;;;;58.25;30.70;;;;;;;;;;5075285;28;20056;-52
2022/01/10 06:40:05;;;;;;;48.65;27.42;;;;;;;;;;5075276;28;20031;-51
2022/01/10 06:42:31;;;;;;;46.05;25.85;;;;;;;;;;5075256;28;20108;-52
2022/01/10 06:44:57;;;;;;;48.30;27.60;;;;;;;;;;5074729;28;20021;-50
2022/01/10 06:47:23;;;;;;;50.28;28.25;;;;;;;;;;5074945;28;20401;-50
2022/01/10 06:49:49;;;;;;;59.08;30.42;;;;;;;;;;5075108;28;20030;-51
2022/01/10 06:52:18;;;;;;;49.42;27.33;;;;;;;;;;5071680;28;20028;-51
2022/01/10 06:54:44;;;;;;;54.92;29.45;;;;;;;;;;5066474;28;21300;-50
2022/01/10 06:57:10;;;;;;;53.45;28.13;;;;;;;;;;5063901;28;20058;-51
2022/01/10 06:59:36;;;;;;;45.70;25.35;;;;;;;;;;5066347;28;20019;-51
2022/01/10 07:02:02;;;;;;;52.97;28.15;;;;;;;;;;5094889;28;20027;-52
2022/01/10 07:04:32;;;;;;;48.67;27.08;;;;;;;;;;5095100;28;20024;-51
2022/01/10 07:06:58;;;;;;;55.42;30.15;;;;;;;;;;5094948;28;20045;-49
2022/01/10 07:09:24;;;;;;;52.70;28.33;;;;;;;;;;5094854;28;20366;-50
2022/01/10 07:11:51;;;;;;;42.47;25.02;;;;;;;;;;5094918;28;20495;-52
2022/01/10 07:14:17;;;;;;;45.63;26.98;;;;;;;;;;5094633;28;20051;-49
2022/01/10 07:16:44;;;;;;;48.10;27.35;;;;;;;;;;5094794;28;20036;-50
2022/01/10 07:19:12;;;;;;;52.17;29.20;;;;;;;;;;5094697;28;20484;-49
2022/01/10 07:21:39;;;;;;;51.40;27.40;;;;;;;;;;5094649;28;20516;-50
2022/01/10 07:24:06;;;;;;;55.45;30.40;;;;;;;;;;5094593;28;20440;-50
2022/01/10 07:26:32;;;;;;;53.22;29.75;;;;;;;;;;5094641;28;20060;-50
2022/01/10 07:28:59;;;;;;;48.17;26.80;;;;;;;;;;5094278;28;20436;-50
2022/01/10 07:31:27;;;;;;;52.22;28.33;;;;;;;;;;5094388;28;20024;-51
2022/01/10 07:33:54;;;;;;;53.40;28.58;;;;;;;;;;5094648;28;20046;-52
2022/01/10 07:36:21;;;;;;;54.42;29.55;;;;;;;;;;5094266;28;20038;-50
2022/01/10 07:38:49;;;;;;;52.15;29.02;;;;;;;;;;5094398;28;20054;-52
2022/01/10 07:41:15;;;;;;;46.67;26.88;;;;;;;;;;5094331;28;20048;-51
2022/01/10 07:43:41;;;;;;;55.88;28.92;;;;;;;;;;5094163;28;20069;-51
2022/01/10 07:46:08;;;;;;;38.60;22.83;;;;;;;;;;5094257;28;20027;-50
2022/01/10 07:48:38;;;;;;;45.17;25.75;;;;;;;;;;5094137;28;20489;-50
2022/01/10 07:51:08;;;;;;;43.47;25.55;;;;;;;;;;5094013;28;20489;-51
2022/01/10 07:53:34;;;;;;;45.50;26.10;;;;;;;;;;5094102;28;20496;-51
2022/01/10 07:56:03;;;;;;;50.00;27.20;;;;;;;;;;5093914;28;20039;-51
2022/01/10 07:58:29;;;;;;;50.88;27.63;;;;;;;;;;5094033;28;20069;-49
2022/01/10 08:00:58;;;;;;;65.65;32.47;;;;;;;;;;5093930;28;20073;-50
2022/01/10 08:03:24;;;;;;;51.67;27.83;;;;;;;;;;5093869;28;20079;-50
2022/01/10 08:05:50;;;;;;;49.25;27.02;;;;;;;;;;5093971;28;20374;-49
2022/01/10 08:08:16;;;;;;;42.15;24.63;;;;;;;;;;5093699;28;20020;-50
2022/01/10 08:10:42;;;;;;;35.13;22.05;;;;;;;;;;5093823;28;20546;-52
2022/01/10 08:13:10;;;;;;;36.70;23.15;;;;;;;;;;5093632;28;20046;-51
2022/01/10 08:15:37;;;;;;;54.72;30.13;;;;;;;;;;5093710;28;20489;-50
2022/01/10 08:18:03;;;;;;;51.78;29.77;;;;;;;;;;5093598;28;20024;-50
2022/01/10 08:20:30;;;;;;;57.20;30.95;;;;;;;;;;5093505;28;20037;-50
2022/01/10 08:22:56;;;;;;;62.63;33.30;;;;;;;;;;5093644;28;20030;-51
2022/01/10 08:25:22;;;;;;;48.25;28.90;;;;;;;;;;5093561;28;20020;-50
2022/01/10 08:27:48;;;;;;;45.80;27.10;;;;;;;;;;5093465;28;20051;-50
2022/01/10 08:30:14;;;;;;;53.30;31.23;;;;;;;;;;5093443;28;20064;-51
2022/01/10 08:32:40;;;;;;;53.05;30.83;;;;;;;;;;5093532;28;20077;-50
2022/01/10 08:35:07;;;;;;;50.03;28.67;;;;;;;;;;5093317;28;20020;-49
2022/01/10 08:37:33;;;;;;;60.40;32.50;;;;;;;;;;5093464;28;20032;-50
2022/01/10 08:39:59;;;;;;;58.13;32.83;;;;;;;;;;5093392;28;20496;-50
2022/01/10 08:42:28;;;;;;;51.03;29.05;;;;;;;;;;5093201;28;20461;-50
2022/01/10 08:44:55;;;;;;;46.17;27.10;;;;;;;;;;5093688;28;20066;-50
2022/01/10 08:47:21;;;;;;;42.10;25.95;;;;;;;;;;5093394;28;20020;-49
2022/01/10 08:49:48;;;;;;;47.72;28.45;;;;;;;;;;5093337;28;20024;-50
2022/01/10 08:52:14;;;;;;;61.53;32.67;;;;;;;;;;5093488;28;20110;-50
2022/01/10 08:54:40;;;;;;;58.17;30.38;;;;;;;;;;5093353;28;20098;-50
2022/01/10 08:57:07;;;;;;;61.55;31.42;;;;;;;;;;5093199;28;20036;-49
2022/01/10 08:59:33;;;;;;;52.53;30.10;;;;;;;;;;5093087;28;20107;-50
2022/01/10 09:01:59;;;;;;;48.85;26.95;;;;;;;;;;5093181;28;20024;-53
2022/01/10 09:04:26;;;;;;;48.60;28.20;;;;;;;;;;5093173;28;20028;-52
2022/01/10 09:06:52;;;;;;;45.72;27.52;;;;;;;;;;5095110;28;20481;-48
2022/01/10 09:09:19;;;;;;;43.47;26.05;;;;;;;;;;5097227;28;20020;-49
2022/01/10 09:11:45;;;;;;;46.20;26.55;;;;;;;;;;5097177;28;20024;-50
2022/01/10 09:14:12;;;;;;;40.17;23.17;;;;;;;;;;5097007;28;20020;-51
2022/01/10 09:16:38;;;;;;;49.85;27.92;;;;;;;;;;5096955;28;20040;-50
2022/01/10 09:19:05;;;;;;;57.45;30.08;;;;;;;;;;5097052;28;20029;-49
2022/01/10 09:21:31;;;;;;;56.92;32.42;;;;;;;;;;5096870;28;20028;-50
2022/01/10 09:23:59;;;;;;;51.63;28.30;;;;;;;;;;5097304;28;20020;-49
2022/01/10 09:26:26;;;;;;;56.05;30.20;;;;;;;;;;5096975;28;20056;-49
2022/01/10 09:28:52;;;;;;;41.50;25.60;;;;;;;;;;5096496;28;20107;-50
2022/01/10 09:31:19;;;;;;;40.63;22.92;;;;;;;;;;5096851;28;20028;-49
2022/01/10 09:33:52;;;;;;;36.80;23.33;;;;;;;;;;5095807;28;20377;-52
2022/01/10 09:36:18;;;;;;;43.95;26.13;;;;;;;;;;5096117;28;20093;-52
2022/01/10 09:38:44;;;;;;;46.30;24.95;;;;;;;;;;5096858;28;20092;-53
2022/01/10 09:41:10;;;;;;;36.88;23.35;;;;;;;;;;5096721;28;20024;-52
2022/01/10 09:43:39;;;;;;;36.72;22.98;;;;;;;;;;5096642;28;20056;-52
2022/01/10 09:46:05;;;;;;;37.20;23.13;;;;;;;;;;5096509;28;20428;-52
2022/01/10 09:48:31;;;;;;;34.33;22.35;;;;;;;;;;5095161;28;20107;-52
2022/01/10 09:50:57;;;;;;;38.38;24.70;;;;;;;;;;5096362;28;20024;-52
2022/01/10 09:53:24;;;;;;;41.90;25.77;;;;;;;;;;5096890;28;20031;-53
2022/01/10 09:55:50;;;;;;;45.22;25.92;;;;;;;;;;5096270;28;20127;-53
2022/01/10 09:58:16;;;;;;;40.38;24.48;;;;;;;;;;5096302;28;20056;-51
2022/01/10 10:00:43;;;;;;;37.05;23.52;;;;;;;;;;5096338;28;20062;-52
2022/01/10 10:03:09;;;;;;;37.05;22.98;;;;;;;;;;5096119;28;20032;-49
2022/01/10 10:05:35;;;;;;;43.22;25.65;;;;;;;;;;5096334;28;20454;-49
2022/01/10 10:08:01;;;;;;;43.22;27.25;;;;;;;;;;5096182;28;20016;-51
2022/01/10 10:10:32;;;;;;;39.63;24.85;;;;;;;;;;5096620;28;20032;-50
2022/01/10 10:12:58;;;;;;;39.93;24.47;;;;;;;;;;5096012;28;20020;-50
2022/01/10 10:15:30;;;;;;;48.42;29.85;;;;;;;;;;5096076;28;20028;-50
2022/01/10 10:17:56;;;;;;;;;;;;;;;;;;5095382;28;20046;-49
2022/01/10 10:20:23;;;;;;;47.40;28.83;;;;;;;;;;5096105;28;20353;-49
2022/01/10 10:22:51;;;;;;;48.05;27.75;;;;;;;;;;5095997;28;20483;-52
2022/01/10 10:25:17;;;;;;;43.65;24.85;;;;;;;;;;5096294;28;20028;-49
2022/01/10 10:27:46;;;;;;;50.92;29.08;;;;;;;;;;5095821;28;20386;-53
2022/01/10 10:30:19;;;;;;;60.15;32.58;;;;;;;;;;5095768;28;20029;-56
2022/01/10 10:32:46;;;;;;;46.10;26.80;;;;;;;;;;5095737;28;20020;-51
2022/01/10 10:35:12;;;;;;;47.03;27.67;;;;;;;;;;5095868;28;20099;-51
2022/01/10 10:37:40;;;;;;;54.75;29.75;;;;;;;;;;5095676;28;20449;-48
2022/01/10 10:40:09;;;;;;;52.97;28.73;;;;;;;;;;5095694;28;20039;-49
2022/01/10 10:42:37;;;;;;;50.45;30.48;;;;;;;;;;5095698;28;20799;-49
2022/01/10 10:45:06;;;;;;;54.10;28.98;;;;;;;;;;5095474;28;20032;-50
2022/01/10 10:47:33;;;;;;;47.28;26.73;;;;;;;;;;5095421;28;20024;-50
2022/01/10 10:49:59;;;;;;;45.78;27.90;;;;;;;;;;5095366;28;20019;-49
2022/01/10 10:52:33;;;;;;;52.72;30.25;;;;;;;;;;5095786;28;20028;-52
2022/01/10 10:55:04;;;;;;;47.55;28.90;;;;;;;;;;5095260;28;20031;-53
2022/01/10 10:57:32;;;;;;;51.20;31.13;;;;;;;;;;5095336;28;20115;-50
2022/01/10 10:59:59;;;;;;;49.13;29.23;;;;;;;;;;5095460;28;20253;-53
2022/01/10 11:02:26;;;;;;;52.17;31.55;;;;;;;;;;5095243;28;20024;-51
2022/01/10 11:04:54;;;;;;;57.58;33.28;;;;;;;;;;5095747;28;20074;-55
2022/01/10 11:07:27;;;;;;;56.17;31.95;;;;;;;;;;5095297;28;20099;-49
2022/01/10 11:09:54;;;;;;;58.25;32.85;;;;;;;;;;5095009;28;20393;-49
2022/01/10 11:12:24;;;;;;;48.85;27.95;;;;;;;;;;5094895;28;20031;-52
2022/01/10 11:14:55;;;;;;;50.05;29.27;;;;;;;;;;5095206;28;20024;-52
2022/01/10 11:17:22;;;;;;;50.63;29.25;;;;;;;;;;5094771;28;20074;-49
2022/01/10 11:20:08;;;;;;;56.72;31.67;;;;;;;;;;5095313;28;20024;-51
2022/01/10 11:22:35;;;;;;;59.90;33.22;;;;;;;;;;5094952;28;20443;-50
2022/01/10 11:25:03;;;;;;;63.38;35.28;;;;;;;;;;5094714;28;20058;-55
2022/01/10 11:27:36;;;;;;;67.60;38.22;;;;;;;;;;5094596;28;20038;-50
2022/01/10 11:30:22;;;;;;;68.22;38.72;;;;;;;;;;5094319;28;20028;-51
2022/01/10 11:32:57;;;;;;;68.05;37.35;;;;;;;;;;5094431;28;20027;-50
2022/01/10 11:35:28;;;;;;;60.70;33.58;;;;;;;;;;5094371;28;20470;-49
2022/01/10 11:37:54;;;;;;;60.72;35.10;;;;;;;;;;5094621;28;20038;-51
2022/01/10 11:40:20;;;;;;;59.35;33.15;;;;;;;;;;5094356;28;20024;-50
2022/01/10 11:42:56;;;;;;;56.80;32.03;;;;;;;;;;5094410;28;20024;-50
2022/01/10 11:45:22;;;;;;;59.03;32.97;;;;;;;;;;5094163;28;20027;-52
2022/01/10 11:48:06;;;;;;;68.13;35.92;;;;;;;;;;5094175;28;20024;-52
2022/01/10 11:50:32;;;;;;;57.47;33.03;;;;;;;;;;5094396;28;20028;-52
2022/01/10 11:53:00;;;;;;;61.17;33.60;;;;;;;;;;5094207;28;20020;-51
2022/01/10 11:55:33;;;;;;;55.05;32.80;;;;;;;;;;5094228;28;20035;-52
2022/01/10 11:58:03;;;;;;;63.00;33.30;;;;;;;;;;5094152;28;20047;-52
2022/01/10 12:00:36;;;;;;;59.80;33.78;;;;;;;;;;5094624;28;20037;-53
2022/01/10 12:03:02;;;;;;;52.38;30.70;;;;;;;;;;5093989;28;20080;-50
2022/01/10 12:05:31;;;;;;;59.10;32.75;;;;;;;;;;5093986;28;20028;-52
2022/01/10 12:07:57;;;;;;;53.40;30.75;;;;;;;;;;5093979;28;20072;-55
2022/01/10 12:10:24;;;;;;;57.83;31.95;;;;;;;;;;5093850;28;20024;-52
2022/01/10 12:12:54;;;;;;;66.38;36.00;;;;;;;;;;5093898;28;20024;-50
2022/01/10 12:15:20;;;;;;;71.45;38.03;;;;;;;;;;5093814;28;20016;-51
2022/01/10 12:17:47;;;;;;;71.97;36.92;;;;;;;;;;5093789;28;20155;-50
2022/01/10 12:20:13;;;;;;;80.75;40.08;;;;;;;;;;5093851;28;20120;-50
2022/01/10 12:22:40;;;;;;;85.60;40.05;;;;;;;;;;5094109;28;20024;-49
2022/01/10 12:25:11;;;;;;;90.57;42.05;;;;;;;;;;5093759;28;20024;-49
2022/01/10 12:27:42;;;;;;;84.72;40.40;;;;;;;;;;5093679;28;20044;-56
2022/01/10 12:30:08;;;;;;;70.07;36.88;;;;;;;;;;5092267;28;20036;-49
2022/01/10 12:32:35;;;;;;;64.40;34.47;;;;;;;;;;5093645;28;20111;-51
2022/01/10 12:35:01;;;;;;;66.85;35.50;;;;;;;;;;5093651;28;20020;-50
2022/01/10 12:37:32;;;;;;;76.30;37.65;;;;;;;;;;5093447;28;20028;-50
2022/01/10 12:39:58;;;;;;;63.88;32.33;;;;;;;;;;5093326;28;20028;-50
2022/01/10 12:42:27;;;;;;;66.55;33.17;;;;;;;;;;5092742;28;20032;-49
2022/01/10 12:44:54;;;;;;;78.03;36.05;;;;;;;;;;5093530;28;20024;-50
2022/01/10 12:47:20;;;;;;;80.40;37.53;;;;;;;;;;5093561;28;20028;-49
2022/01/10 12:49:49;;;;;;;75.57;37.45;;;;;;;;;;5093517;28;20492;-49
2022/01/10 12:52:16;;;;;;;63.25;33.22;;;;;;;;;;5093238;28;20396;-49
2022/01/10 12:54:42;;;;;;;65.25;32.85;;;;;;;;;;5093221;28;20020;-49
2022/01/10 12:57:11;;;;;;;57.40;32.08;;;;;;;;;;5093537;28;20028;-50
2022/01/10 12:59:38;;;;;;;63.47;33.20;;;;;;;;;;5093310;28;20469;-50
2022/01/10 13:02:06;;;;;;;72.43;37.58;;;;;;;;;;5093162;28;20020;-50
2022/01/10 13:04:39;;;;;;;80.38;38.78;;;;;;;;;;5093238;28;20488;-50
2022/01/10 13:07:08;;;;;;;68.15;33.38;;;;;;;;;;5093263;28;20024;-51
2022/01/10 13:09:34;;;;;;;58.13;31.45;;;;;;;;;;5093155;28;20111;-50
2022/01/10 13:12:12;;;;;;;57.35;31.58;;;;;;;;;;5093374;28;20024;-51
2022/01/10 13:14:38;;;;;;;53.63;29.75;;;;;;;;;;5093037;28;20035;-50
2022/01/10 13:17:09;;;;;;;54.22;30.30;;;;;;;;;;5093002;28;20032;-50
2022/01/10 13:19:36;;;;;;;60.70;32.13;;;;;;;;;;5093072;28;20035;-51
2022/01/10 13:22:06;;;;;;;63.42;34.42;;;;;;;;;;5093067;28;20413;-52
2022/01/10 13:24:33;;;;;;;68.05;35.85;;;;;;;;;;5091685;28;20027;-51
2022/01/10 13:27:03;;;;;;;72.55;37.80;;;;;;;;;;5092999;28;20032;-51
2022/01/10 13:29:37;;;;;;;73.93;39.65;;;;;;;;;;5092756;28;20097;-51
2022/01/10 13:32:34;;;;;;;78.60;40.75;;;;;;;;;;5093034;28;20028;-52
2022/01/10 13:35:00;;;;;;;73.10;37.95;;;;;;;;;;5070726;28;20048;-50
2022/01/10 13:37:29;;;;;;;76.75;38.97;;;;;;;;;;5070510;28;20040;-53
2022/01/10 13:40:22;;;;;;;78.40;39.75;;;;;;;;;;5070680;28;20115;-53
2022/01/10 13:42:50;;;;;;;95.13;45.65;;;;;;;;;;5067925;28;20109;-52
2022/01/10 13:45:21;;;;;;;90.22;44.28;;;;;;;;;;5070556;28;20043;-51
2022/01/10 13:47:49;;;;;;;77.07;38.13;;;;;;;;;;5070718;28;20248;-53
2022/01/10 13:50:22;;;;;;;83.20;40.25;;;;;;;;;;5070489;28;20029;-50
2022/01/10 13:53:05;;;;;;;76.68;38.47;;;;;;;;;;5072187;28;20051;-50
2022/01/10 13:55:32;;;;;;;82.03;38.75;;;;;;;;;;5074186;28;20035;-50
2022/01/10 13:57:58;;;;;;;81.50;39.83;;;;;;;;;;5073755;28;20056;-50
2022/01/10 14:00:25;;;;;;;79.25;40.85;;;;;;;;;;5073986;28;20021;-54
2022/01/10 14:02:57;;;;;;;94.75;45.45;;;;;;;;;;5074057;28;20133;-51
2022/01/10 14:05:28;;;;;;;86.65;43.75;;;;;;;;;;5074017;28;20098;-50
2022/01/10 14:07:55;;;;;;;84.20;42.13;;;;;;;;;;5073952;28;20542;-54
2022/01/10 14:10:25;;;;;;;75.15;40.25;;;;;;;;;;5074950;28;20101;-51
2022/01/10 14:12:51;;;;;;;80.28;41.83;;;;;;;;;;5096210;28;20027;-52
2022/01/10 14:15:28;;;;;;;83.85;43.70;;;;;;;;;;5096159;28;20031;-51
2022/01/10 14:17:54;;;;;;;80.20;42.83;;;;;;;;;;5094863;28;20028;-50
2022/01/10 14:20:21;;;;;;;75.32;41.25;;;;;;;;;;5095498;28;20482;-51
2022/01/10 14:22:47;;;;;;;68.10;36.38;;;;;;;;;;5095330;28;20031;-48
2022/01/10 14:25:16;;;;;;;76.32;37.90;;;;;;;;;;5095232;28;20024;-48
2022/01/10 14:27:43;;;;;;;80.88;43.03;;;;;;;;;;5094947;28;20044;-49
2022/01/10 14:30:09;;;;;;;100.22;49.22;;;;;;;;;;5095220;28;20500;-49
2022/01/10 14:32:35;;;;;;;105.38;52.00;;;;;;;;;;5095008;28;20035;-51